Wetterdaten: Woche 11.01.10 - 17.01.10 (KW2)
Datum Zeit Temp. A. Feuchte A. Luftdruck Regen Wind Richtung Taupunkt Windchill Windben
11.01.2010 00:00 -0,6 C 75 % 1013,4 hPa 0,0 l/m 6,1 km/h W-SW -4,4 C -1,3 C 21,7 km/h
11.01.2010 01:00 -0,8 C 75 % 1013,7 hPa 0,0 l/m 8,4 km/h W-NW -4,6 C -2,8 C 24,5 km/h
11.01.2010 02:00 -0,9 C 76 % 1014,2 hPa 0,0 l/m 6,3 km/h W-NW -4,7 C -1,1 C 18,1 km/h
11.01.2010 03:00 -0,9 C 76 % 1014,4 hPa 0,0 l/m 6,8 km/h NW -4,6 C -1,4 C 18,1 km/h
11.01.2010 04:00 -0,9 C 76 % 1014,8 hPa 0,0 l/m 4,1 km/h W-SW -4,6 C -0,9 C 12,1 km/h
11.01.2010 05:00 -0,9 C 76 % 1014,8 hPa 0,0 l/m 4,9 km/h W-NW -4,6 C -0,9 C 14,9 km/h
11.01.2010 06:00 -1,1 C 77 % 1014,7 hPa 0,0 l/m 4,9 km/h NW -4,6 C -1,1 C 11,7 km/h
11.01.2010 07:00 -1,2 C 77 % 1015,1 hPa 0,0 l/m 5,4 km/h NW -4,7 C -1,2 C 15,3 km/h
11.01.2010 08:00 -1,3 C 78 % 1015,4 hPa 0,0 l/m 4,4 km/h N-NW -4,5 C -1,3 C 10,1 km/h
11.01.2010 09:00 -1,1 C 79 % 1015,8 hPa 0,0 l/m 4,9 km/h NW -4,4 C -1,1 C 10,9 km/h
11.01.2010 10:00 -0,9 C 79 % 1016,4 hPa 0,0 l/m 3,5 km/h NW -4,1 C -0,9 C 8,8 km/h
11.01.2010 11:00 -0,8 C 78 % 1016,3 hPa 0,0 l/m 2,3 km/h W -4,1 C -0,8 C 6,4 km/h
11.01.2010 12:00 -0,7 C 76 % 1016,2 hPa 0,0 l/m 2,8 km/h W-SW -4,3 C -0,7 C 8,0 km/h
11.01.2010 13:00 -0,6 C 75 % 1015,7 hPa 0,0 l/m 3,0 km/h W -4,5 C -0,6 C 9,3 km/h
11.01.2010 14:00 -0,7 C 76 % 1015,8 hPa 0,0 l/m 2,1 km/h NW -4,4 C -0,7 C 8,0 km/h
11.01.2010 15:00 -0,7 C 78 % 1016,1 hPa 0,0 l/m 1,9 km/h N -4,1 C -0,7 C 5,2 km/h
11.01.2010 16:00 -0,9 C 79 % 1016,5 hPa 0,0 l/m 0,4 km/h N -4,1 C -0,9 C 2,8 km/h
11.01.2010 17:00 -1,1 C 80 % 1017,0 hPa 0,0 l/m 0,9 km/h N-NW -4,2 C -1,1 C 4,4 km/h
11.01.2010 18:00 -1,4 C 81 % 1017,3 hPa 0,0 l/m 1,3 km/h N-NW -4,3 C -1,4 C 4,4 km/h
11.01.2010 19:00 -1,5 C 82 % 1017,5 hPa 0,0 l/m 0,4 km/h N -4,2 C -1,5 C 3,2 km/h
11.01.2010 20:00 -1,6 C 83 % 1017,7 hPa 0,0 l/m 0,1 km/h N -4,1 C -1,6 C 2,0 km/h
11.01.2010 21:00 -1,7 C 83 % 1018,0 hPa 0,0 l/m 0,0 km/h N -4,2 C -1,7 C 0,4 km/h
11.01.2010 22:00 -1,8 C 84 % 1018,5 hPa 0,0 l/m 0,1 km/h N -4,1 C -1,8 C 2,0 km/h
11.01.2010 23:00 -1,8 C 84 % 1018,8 hPa 0,0 l/m 2,7 km/h N-NW -4,1 C -1,8 C 8,4 km/h
12.01.2010 00:00 -1,8 C 84 % 1019,0 hPa 0,0 l/m 1,7 km/h N-NW -4,2 C -1,8 C 6,0 km/h
12.01.2010 01:00 -2,0 C 84 % 1019,2 hPa 0,0 l/m 1,5 km/h N-NO -4,3 C -2,0 C 5,2 km/h
12.01.2010 02:00 -2,8 C 84 % 1019,3 hPa 0,0 l/m 3,1 km/h N-NW -5,1 C -2,8 C 6,8 km/h
12.01.2010 03:00 -3,5 C 85 % 1019,5 hPa 0,0 l/m 3,2 km/h N-NW -5,6 C -3,5 C 7,6 km/h
12.01.2010 04:00 -3,8 C 86 % 1019,7 hPa 0,0 l/m 1,8 km/h NW -5,8 C -3,8 C 7,3 km/h
12.01.2010 05:00 -4,4 C 87 % 1019,7 hPa 0,0 l/m 0,9 km/h N -6,3 C -4,4 C 2,8 km/h
12.01.2010 06:00 -5,0 C 87 % 1019,7 hPa 0,0 l/m 0,1 km/h N -6,8 C -5,0 C 2,0 km/h
12.01.2010 07:00 -5,8 C 87 % 1020,0 hPa 0,0 l/m 0,0 km/h N -7,6 C -5,8 C 0,0 km/h
12.01.2010 08:00 -6,4 C 87 % 1020,3 hPa 0,0 l/m 0,1 km/h N -8,2 C -6,4 C 0,8 km/h
12.01.2010 09:00 -4,7 C 89 % 1020,4 hPa 0,0 l/m 3,1 km/h NW -6,2 C -4,7 C 7,2 km/h
12.01.2010 10:00 -3,5 C 86 % 1020,4 hPa 0,0 l/m 5,2 km/h N-NW -5,5 C -3,5 C 11,7 km/h
12.01.2010 11:00 -2,7 C 81 % 1019,8 hPa 0,0 l/m 3,4 km/h NW -5,5 C -2,7 C 8,0 km/h
12.01.2010 12:00 -2,3 C 80 % 1018,9 hPa 0,0 l/m 4,2 km/h N-NW -5,4 C -2,3 C 8,4 km/h
12.01.2010 13:00 -1,9 C 79 % 1018,4 hPa 0,0 l/m 3,8 km/h NW -5,2 C -1,9 C 8,9 km/h
12.01.2010 14:00 -1,9 C 77 % 1018,0 hPa 0,0 l/m 3,0 km/h N-NW -5,5 C -1,9 C 6,4 km/h
12.01.2010 15:00 -2,0 C 76 % 1017,8 hPa 0,0 l/m 1,8 km/h N-NW -5,6 C -2,0 C 5,2 km/h
12.01.2010 16:00 -2,5 C 77 % 1017,7 hPa 0,0 l/m 1,2 km/h N-NO -5,9 C -2,5 C 4,8 km/h
12.01.2010 17:00 -3,0 C 80 % 1017,8 hPa 0,0 l/m 2,9 km/h N-NO -5,9 C -3,0 C 7,6 km/h
12.01.2010 18:00 -3,5 C 81 % 1017,8 hPa 0,0 l/m 3,3 km/h W -6,3 C -3,5 C 7,6 km/h
12.01.2010 19:00 -3,6 C 82 % 1017,4 hPa 0,0 l/m 1,6 km/h N-NW -6,2 C -3,6 C 5,6 km/h
12.01.2010 20:00 -3,6 C 83 % 1017,0 hPa 0,0 l/m 0,9 km/h N -6,1 C -3,6 C 4,8 km/h
12.01.2010 21:00 -3,6 C 84 % 1016,5 hPa 0,0 l/m 1,5 km/h SW -5,9 C -3,6 C 5,6 km/h
12.01.2010 22:00 -3,6 C 84 % 1016,0 hPa 0,0 l/m 0,8 km/h N -5,8 C -3,6 C 4,4 km/h
12.01.2010 23:00 -3,4 C 85 % 1015,4 hPa 0,0 l/m 0,5 km/h SW -5,6 C -3,4 C 2,8 km/h
13.01.2010 00:00 -3,3 C 85 % 1014,8 hPa 0,0 l/m 0,8 km/h S -5,5 C -3,3 C 4,0 km/h
13.01.2010 01:00 -3,3 C 85 % 1014,5 hPa 0,0 l/m 1,3 km/h S -5,5 C -3,3 C 5,2 km/h
13.01.2010 02:00 -3,5 C 86 % 1014,0 hPa 0,0 l/m 1,2 km/h O-SO -5,6 C -3,5 C 4,4 km/h
13.01.2010 03:00 -3,3 C 87 % 1013,4 hPa 0,0 l/m 2,2 km/h O-SO -5,1 C -3,3 C 6,8 km/h
13.01.2010 04:00 -3,2 C 88 % 1013,2 hPa 0,0 l/m 2,5 km/h O-SO -4,8 C -3,2 C 8,4 km/h
13.01.2010 05:00 -3,1 C 88 % 1013,1 hPa 0,0 l/m 4,4 km/h O-SO -4,8 C -3,1 C 12,1 km/h
13.01.2010 06:00 -3,0 C 89 % 1013,0 hPa 0,0 l/m 4,4 km/h O -4,6 C -3,0 C 10,5 km/h
13.01.2010 07:00 -2,8 C 90 % 1013,1 hPa 0,0 l/m 3,4 km/h O-SO -4,2 C -2,8 C 9,3 km/h
13.01.2010 08:00 -2,3 C 90 % 1013,1 hPa 0,0 l/m 5,0 km/h SO -3,8 C -2,3 C 13,7 km/h
13.01.2010 09:00 -2,1 C 90 % 1013,5 hPa 0,0 l/m 5,3 km/h O-SO -3,5 C -2,1 C 12,5 km/h
13.01.2010 10:00 -1,9 C 90 % 1013,7 hPa 0,0 l/m 4,9 km/h O -3,3 C -1,9 C 12,9 km/h
13.01.2010 11:00 -2,0 C 89 % 1013,3 hPa 0,0 l/m 6,1 km/h O-SO -3,5 C -2,1 C 13,7 km/h
13.01.2010 12:00 -2,0 C 89 % 1013,0 hPa 0,0 l/m 7,2 km/h O-SO -3,5 C -2,8 C 16,1 km/h
13.01.2010 13:00 -1,7 C 89 % 1012,7 hPa 0,0 l/m 6,2 km/h SO -3,3 C -2,1 C 15,3 km/h
13.01.2010 14:00 -1,4 C 88 % 1012,5 hPa 0,0 l/m 5,3 km/h O-SO -3,1 C -1,4 C 14,9 km/h
13.01.2010 15:00 -1,1 C 88 % 1012,5 hPa 0,0 l/m 4,6 km/h O -3,0 C -1,1 C 12,1 km/h
13.01.2010 16:00 -1,0 C 86 % 1012,7 hPa 0,0 l/m 4,9 km/h O-SO -2,9 C -1,0 C 11,3 km/h
13.01.2010 17:00 -0,9 C 86 % 1013,0 hPa 0,0 l/m 4,4 km/h O-SO -3,0 C -0,9 C 9,7 km/h
13.01.2010 18:00 -0,8 C 85 % 1013,3 hPa 0,0 l/m 4,9 km/h O -3,0 C -0,8 C 11,7 km/h
13.01.2010 19:00 -0,8 C 85 % 1013,5 hPa 0,0 l/m 4,2 km/h O -3,0 C -0,8 C 11,7 km/h
13.01.2010 20:00 -0,8 C 85 % 1013,8 hPa 0,0 l/m 4,1 km/h O-SO -3,0 C -0,8 C 14,5 km/h
13.01.2010 21:00 -0,7 C 85 % 1014,1 hPa 0,0 l/m 3,5 km/h O-SO -2,9 C -0,7 C 10,1 km/h
13.01.2010 22:00 -0,8 C 85 % 1014,3 hPa 0,0 l/m 3,4 km/h O -3,0 C -0,8 C 12,1 km/h
13.01.2010 23:00 -1,0 C 85 % 1014,3 hPa 0,0 l/m 3,4 km/h SO -3,2 C -1,0 C 11,3 km/h
14.01.2010 00:00 -1,1 C 85 % 1014,2 hPa 0,0 l/m 4,2 km/h O-SO -3,3 C -1,1 C 10,9 km/h
14.01.2010 01:00 -1,0 C 88 % 1013,9 hPa 0,0 l/m 3,2 km/h O-SO -2,9 C -1,0 C 8,4 km/h
14.01.2010 02:00 -0,9 C 86 % 1013,6 hPa 0,0 l/m 2,1 km/h O-SO -2,9 C -0,9 C 6,4 km/h
14.01.2010 03:00 -0,9 C 86 % 1013,4 hPa 0,0 l/m 4,0 km/h O-SO -3,0 C -0,9 C 10,1 km/h
14.01.2010 04:00 -1,0 C 86 % 1013,3 hPa 0,0 l/m 3,9 km/h O-SO -3,0 C -1,0 C 10,5 km/h
14.01.2010 05:00 -1,0 C 86 % 1013,3 hPa 0,0 l/m 4,4 km/h O-SO -3,0 C -1,0 C 10,5 km/h
14.01.2010 06:00 -1,0 C 86 % 1013,5 hPa 0,0 l/m 4,9 km/h O-SO -3,0 C -1,0 C 11,3 km/h
14.01.2010 07:00 -1,1 C 86 % 1013,8 hPa 0,0 l/m 4,3 km/h O-SO -3,1 C -1,1 C 10,9 km/h
14.01.2010 08:00 -1,2 C 87 % 1014,0 hPa 0,0 l/m 4,1 km/h O-SO -3,2 C -1,2 C 10,9 km/h
14.01.2010 09:00 -1,0 C 87 % 1014,2 hPa 0,0 l/m 3,4 km/h O-SO -2,9 C -1,0 C 9,7 km/h
14.01.2010 10:00 -0,9 C 87 % 1014,4 hPa 0,0 l/m 4,2 km/h O-SO -2,8 C -0,9 C 9,3 km/h
14.01.2010 11:00 -0,7 C 86 % 1014,3 hPa 0,0 l/m 4,8 km/h O-SO -2,7 C -0,7 C 10,9 km/h
14.01.2010 12:00 -0,5 C 85 % 1014,0 hPa 0,0 l/m 5,2 km/h O-SO -2,7 C -0,5 C 12,5 km/h
14.01.2010 13:00 -0,4 C 85 % 1013,5 hPa 0,0 l/m 5,2 km/h O-SO -2,6 C -0,4 C 13,7 km/h
14.01.2010 14:00 -0,4 C 85 % 1013,5 hPa 0,0 l/m 4,5 km/h O -2,6 C -0,4 C 15,3 km/h
14.01.2010 15:00 -0,5 C 84 % 1013,8 hPa 0,0 l/m 6,4 km/h O-SO -2,8 C -0,8 C 17,7 km/h
14.01.2010 16:00 -0,5 C 84 % 1014,0 hPa 0,0 l/m 6,8 km/h O-SO -2,9 C -0,9 C 18,9 km/h
14.01.2010 17:00 -0,6 C 84 % 1014,3 hPa 0,0 l/m 5,6 km/h O-SO -2,9 C -0,6 C 16,9 km/h
14.01.2010 18:00 -0,6 C 84 % 1014,7 hPa 0,0 l/m 3,3 km/h SO -3,0 C -0,6 C 12,9 km/h
14.01.2010 19:00 -0,6 C 85 % 1015,1 hPa 0,0 l/m 3,2 km/h O-SO -2,8 C -0,6 C 11,7 km/h
14.01.2010 20:00 -0,6 C 85 % 1015,6 hPa 0,0 l/m 2,5 km/h S-SO -2,8 C -0,6 C 8,4 km/h
14.01.2010 21:00 -0,4 C 84 % 1015,8 hPa 0,0 l/m 2,9 km/h O -2,9 C -0,4 C 8,0 km/h
14.01.2010 22:00 -0,4 C 83 % 1016,0 hPa 0,0 l/m 3,3 km/h SO -2,9 C -0,4 C 10,9 km/h
14.01.2010 23:00 -0,4 C 83 % 1016,4 hPa 0,0 l/m 4,8 km/h SO -2,9 C -0,4 C 13,7 km/h
15.01.2010 00:00 -0,6 C 84 % 1016,7 hPa 0,0 l/m 5,1 km/h O -2,9 C -0,6 C 15,7 km/h
15.01.2010 01:00 -0,7 C 85 % 1016,9 hPa 0,0 l/m 2,7 km/h SO -2,9 C -0,7 C 8,9 km/h
15.01.2010 02:00 -0,8 C 86 % 1017,5 hPa 0,0 l/m 3,5 km/h O-SO -2,8 C -0,8 C 12,5 km/h
15.01.2010 03:00 -0,9 C 86 % 1017,9 hPa 0,0 l/m 5,1 km/h O -2,9 C -0,9 C 14,1 km/h
15.01.2010 04:00 -0,9 C 87 % 1018,5 hPa 0,0 l/m 5,3 km/h O -2,8 C -0,9 C 14,9 km/h
15.01.2010 05:00 -0,9 C 87 % 1019,0 hPa 0,0 l/m 4,2 km/h SO -2,8 C -0,9 C 11,7 km/h
15.01.2010 06:00 -0,8 C 87 % 1019,7 hPa 0,0 l/m 4,9 km/h O -2,7 C -0,8 C 12,5 km/h
15.01.2010 07:00 -0,8 C 87 % 1020,5 hPa 0,0 l/m 2,4 km/h O -2,7 C -0,8 C 8,4 km/h
15.01.2010 08:00 -0,7 C 87 % 1021,5 hPa 0,0 l/m 2,2 km/h O-SO -2,7 C -0,7 C 8,0 km/h
15.01.2010 09:00 -0,4 C 85 % 1022,5 hPa 0,0 l/m 3,1 km/h O -2,6 C -0,4 C 10,1 km/h
15.01.2010 10:00 -0,1 C 84 % 1023,3 hPa 0,0 l/m 1,9 km/h O -2,5 C -0,1 C 6,8 km/h
15.01.2010 11:00 0,4 C 83 % 1023,8 hPa 0,0 l/m 0,3 km/h N -2,1 C 0,4 C 3,2 km/h
15.01.2010 12:00 0,8 C 81 % 1023,8 hPa 0,0 l/m 0,5 km/h N -2,1 C 0,8 C 6,0 km/h
15.01.2010 13:00 0,8 C 80 % 1024,3 hPa 0,0 l/m 0,7 km/h O -2,2 C 0,8 C 4,8 km/h
15.01.2010 14:00 0,6 C 81 % 1024,7 hPa 0,3 l/m 1,3 km/h O-SO -2,3 C 0,6 C 5,6 km/h
15.01.2010 15:00 0,5 C 82 % 1025,4 hPa 0,5 l/m 0,9 km/h O-SO -2,3 C 0,5 C 4,4 km/h
15.01.2010 16:00 0,4 C 83 % 1026,2 hPa 0,0 l/m 0,1 km/h N -2,1 C 0,4 C 2,0 km/h
15.01.2010 17:00 0,2 C 85 % 1027,0 hPa 0,0 l/m 0,0 km/h N -2,1 C 0,2 C 0,8 km/h
15.01.2010 18:00 0,0 C 86 % 1027,5 hPa 0,0 l/m 0,0 km/h N -2,1 C 0,0 C 0,8 km/h
15.01.2010 19:00 -0,1 C 86 % 1028,0 hPa 0,0 l/m 0,1 km/h N -2,1 C -0,1 C 0,8 km/h
15.01.2010 20:00 -0,3 C 87 % 1028,5 hPa 0,0 l/m 0,0 km/h N -2,2 C -0,3 C 0,0 km/h
15.01.2010 21:00 -0,6 C 87 % 1029,0 hPa 0,0 l/m 0,0 km/h N -2,5 C -0,6 C 0,0 km/h
15.01.2010 22:00 -0,7 C 88 % 1029,2 hPa 0,0 l/m 0,0 km/h N -2,5 C -0,7 C 0,0 km/h
15.01.2010 23:00 -0,8 C 88 % 1029,4 hPa 0,0 l/m 0,0 km/h N -2,5 C -0,8 C 0,0 km/h
16.01.2010 00:00 -0,8 C 88 % 1029,4 hPa 0,0 l/m 0,0 km/h N -2,5 C -0,8 C 0,0 km/h
16.01.2010 01:00 -0,9 C 88 % 1029,3 hPa 0,0 l/m 0,0 km/h N -2,6 C -0,9 C 0,0 km/h
16.01.2010 02:00 -1,0 C 88 % 1029,4 hPa 0,0 l/m 0,0 km/h N -2,7 C -1,0 C 0,0 km/h
16.01.2010 03:00 -0,9 C 88 % 1029,4 hPa 0,0 l/m 0,0 km/h N -2,6 C -0,9 C 0,0 km/h
16.01.2010 04:00 -0,9 C 88 % 1029,3 hPa 0,0 l/m 0,0 km/h N -2,7 C -0,9 C 0,0 km/h
16.01.2010 05:00 -0,8 C 87 % 1029,1 hPa 0,0 l/m 0,1 km/h N -2,7 C -0,8 C 2,0 km/h
16.01.2010 06:00 -0,8 C 86 % 1029,1 hPa 0,0 l/m 0,0 km/h N -2,9 C -0,8 C 1,6 km/h
16.01.2010 07:00 -1,1 C 86 % 1029,3 hPa 0,0 l/m 0,1 km/h N -3,2 C -1,1 C 2,4 km/h
16.01.2010 08:00 -1,3 C 87 % 1029,3 hPa 0,0 l/m 0,2 km/h N -3,3 C -1,3 C 2,8 km/h
16.01.2010 09:00 -0,8 C 87 % 1029,2 hPa 0,0 l/m 2,2 km/h O-SO -2,7 C -0,8 C 7,3 km/h
16.01.2010 10:00 0,2 C 83 % 1028,9 hPa 0,0 l/m 4,9 km/h SO -2,4 C 0,2 C 13,3 km/h
16.01.2010 11:00 1,1 C 77 % 1028,2 hPa 0,0 l/m 4,4 km/h O-SO -2,4 C 1,1 C 14,5 km/h
16.01.2010 12:00 1,5 C 74 % 1027,3 hPa 0,3 l/m 4,0 km/h S-SO -2,6 C 1,5 C 13,3 km/h
16.01.2010 13:00 2,2 C 68 % 1026,4 hPa 0,5 l/m 5,0 km/h O-SO -3,1 C 2,2 C 13,7 km/h
16.01.2010 14:00 2,2 C 67 % 1026,0 hPa 0,3 l/m 5,2 km/h O -3,3 C 2,2 C 16,1 km/h
16.01.2010 15:00 1,7 C 70 % 1025,8 hPa 0,3 l/m 5,6 km/h SO -3,2 C 1,7 C 14,9 km/h
16.01.2010 16:00 1,0 C 73 % 1025,7 hPa 0,0 l/m 4,6 km/h SO -3,3 C 1,0 C 11,7 km/h
16.01.2010 17:00 0,3 C 76 % 1025,6 hPa 0,0 l/m 3,6 km/h S-SO -3,4 C 0,3 C 13,7 km/h
16.01.2010 18:00 0,1 C 77 % 1025,3 hPa 0,0 l/m 4,7 km/h S-SO -3,5 C 0,1 C 14,1 km/h
16.01.2010 19:00 -0,2 C 77 % 1025,1 hPa 0,0 l/m 3,8 km/h O-SO -3,7 C -0,2 C 14,1 km/h
16.01.2010 20:00 -0,3 C 77 % 1024,5 hPa 0,0 l/m 3,9 km/h S-SO -3,9 C -0,3 C 11,7 km/h
16.01.2010 21:00 -0,5 C 77 % 1023,6 hPa 0,0 l/m 3,6 km/h SO -4,1 C -0,5 C 14,9 km/h
16.01.2010 22:00 -1,0 C 77 % 1022,6 hPa 0,0 l/m 3,7 km/h O-SO -4,5 C -1,0 C 14,1 km/h
16.01.2010 23:00 -1,7 C 79 % 1021,9 hPa 0,0 l/m 5,4 km/h SO -4,8 C -1,7 C 15,3 km/h
17.01.2010 00:00 -2,7 C 85 % 1021,7 hPa 0,0 l/m 4,5 km/h S-SO -4,9 C -2,7 C 12,9 km/h
17.01.2010 01:00 -2,8 C 87 % 1021,3 hPa 0,0 l/m 5,0 km/h O-SO -4,7 C -2,8 C 15,7 km/h
17.01.2010 02:00 -2,8 C 88 % 1021,3 hPa 0,0 l/m 5,2 km/h S -4,5 C -2,8 C 16,9 km/h
17.01.2010 03:00 -2,7 C 88 % 1021,1 hPa 0,0 l/m 4,7 km/h O-SO -4,4 C -2,7 C 16,5 km/h
17.01.2010 04:00 -2,5 C 88 % 1021,0 hPa 0,0 l/m 4,1 km/h O -4,3 C -2,5 C 11,7 km/h
17.01.2010 05:00 -2,6 C 88 % 1021,2 hPa 0,0 l/m 4,1 km/h O-SO -4,3 C -2,6 C 15,7 km/h
17.01.2010 06:00 -2,6 C 87 % 1021,4 hPa 0,0 l/m 4,0 km/h S-SO -4,5 C -2,6 C 13,7 km/h
17.01.2010 07:00 -2,5 C 86 % 1021,3 hPa 0,0 l/m 3,9 km/h SO -4,6 C -2,5 C 16,1 km/h
17.01.2010 08:00 -2,3 C 85 % 1021,5 hPa 0,0 l/m 3,8 km/h S -4,4 C -2,3 C 13,7 km/h
17.01.2010 09:00 -1,9 C 85 % 1021,7 hPa 0,0 l/m 4,1 km/h O -4,1 C -1,9 C 12,1 km/h
17.01.2010 10:00 -1,3 C 84 % 1021,7 hPa 0,0 l/m 3,1 km/h SO -3,7 C -1,3 C 9,3 km/h
17.01.2010 11:00 -1,0 C 83 % 1021,2 hPa 0,0 l/m 3,3 km/h S-SO -3,5 C -1,0 C 10,1 km/h
17.01.2010 12:00 -0,8 C 83 % 1020,7 hPa 0,0 l/m 3,0 km/h S -3,3 C -0,8 C 10,1 km/h
17.01.2010 13:00 -0,5 C 83 % 1020,3 hPa 0,0 l/m 3,2 km/h S-SO -3,1 C -0,5 C 8,9 km/h
17.01.2010 14:00 -0,3 C 82 % 1020,1 hPa 0,3 l/m 3,0 km/h SO -3,0 C -0,3 C 8,9 km/h
17.01.2010 15:00 -0,4 C 82 % 1020,6 hPa 0,0 l/m 2,3 km/h SO -3,1 C -0,4 C 8,0 km/h
17.01.2010 16:00 -0,5 C 82 % 1020,9 hPa 0,0 l/m 1,5 km/h S-SO -3,2 C -0,5 C 6,0 km/h
17.01.2010 17:00 -0,7 C 84 % 1021,1 hPa 0,0 l/m 0,9 km/h N -3,1 C -0,7 C 5,2 km/h
17.01.2010 18:00 -1,0 C 86 % 1021,3 hPa 0,0 l/m 0,2 km/h N -3,1 C -1,0 C 2,4 km/h
17.01.2010 19:00 -1,2 C 88 % 1021,4 hPa 0,0 l/m 0,1 km/h N -3,0 C -1,2 C 2,0 km/h
17.01.2010 20:00 -1,3 C 88 % 1021,6 hPa 0,0 l/m 0,5 km/h S -3,0 C -1,3 C 5,7 km/h
17.01.2010 21:00 -1,3 C 89 % 1021,8 hPa 0,0 l/m 0,4 km/h N -2,9 C -1,3 C 4,8 km/h
17.01.2010 22:00 -1,3 C 89 % 1021,8 hPa 0,0 l/m 0,4 km/h N -2,9 C -1,3 C 4,8 km/h
17.01.2010 23:00 -1,2 C 90 % 1022,1 hPa 0,0 l/m 1,4 km/h S -2,6 C -1,2 C 8,0 km/h
Min-Datum _ 12.01.10 16.01.10 13.01.10 - 11.01.10 - 12.01.10 12.01.10 11.01.10
_ Min-Zeit 08:30 13:30 14:30 - 20:15 - 08:30 08:30 21:00
Minimum _ -6,6 C 67 % 1012,4 hPa - 0,0 km/h - -8,4 C -6,6 C 0,0 km/h
Max-Datum _ 16.01.10 14.01.10 15.01.10 15.01.10 11.01.10 - 15.01.10 16.01.10 11.01.10
_ Max-Zeit 13:30 01:15 23:45 15:15 01:30 - 11:30 13:30 01:30
Maximum _ 2,3 C 92 % 1029,5 hPa 0,5 l/m 9,0 km/h
W-NW
- -1,9 C 2,3 C 29,0 km/h
W
Durchschnitt _ -1,3 C 84 % 1019,1 hPa #2,3 l/m 3,0 km/h O-SO -3,7 C -1,3 C 9,0 km/h